Time;durP1;ratioP1;P1;durP2;ratioP2;P2;SDS_P1;SDS_P2;PMS_P1;PMS_P2;Temp;Humidity;BMP_temperature;BMP_pressure;BME280_temperature;BME280_humidity;BME280_pressure;Samples;Min_cycle;Max_cycle;Signal;HPM_P1;HPM_P2
2022/11/26 00:00:14;;;;;;;12.25;3.72;;;5.40;99.90;;;;;;6129358;19;19918;-68
2022/11/26 00:02:21;;;;;;;13.25;3.60;;;5.50;99.90;;;;;;6128898;19;19910;-68
2022/11/26 00:04:25;;;;;;;11.40;3.40;;;5.40;99.90;;;;;;6127280;19;19918;-68
2022/11/26 00:06:34;;;;;;;15.95;4.35;;;5.40;99.90;;;;;;6128717;19;20336;-69
2022/11/26 00:08:41;;;;;;;9.32;3.20;;;5.30;99.90;;;;;;6128155;19;20726;-69
2022/11/26 00:10:45;;;;;;;15.73;3.35;;;5.20;99.90;;;;;;6129111;19;19922;-68
2022/11/26 00:12:49;;;;;;;12.82;3.05;;;;;;;;;;6129094;19;19918;-68
2022/11/26 00:14:53;;;;;;;10.60;3.08;;;5.20;99.90;;;;;;6128995;19;20376;-68
2022/11/26 00:16:57;;;;;;;11.43;2.90;;;5.10;99.90;;;;;;6128856;19;20282;-69
2022/11/26 00:19:01;;;;;;;13.57;3.45;;;5.00;99.90;;;;;;6128974;19;19925;-68
2022/11/26 00:21:05;;;;;;;11.57;3.75;;;5.10;99.90;;;;;;6128978;19;20282;-69
2022/11/26 00:23:15;;;;;;;10.73;2.50;;;5.20;99.90;;;;;;6128514;19;19922;-69
2022/11/26 00:25:26;;;;;;;12.85;2.55;;;4.90;99.90;;;;;;6128918;19;19914;-69
2022/11/26 00:27:30;;;;;;;8.15;2.63;;;5.00;99.90;;;;;;6129775;19;19925;-69
2022/11/26 00:29:34;;;;;;;14.27;3.10;;;5.20;99.90;;;;;;6127581;19;19915;-69
2022/11/26 00:31:38;;;;;;;8.48;2.88;;;;;;;;;;6128374;19;19914;-69
2022/11/26 00:33:42;;;;;;;10.52;2.80;;;5.10;99.90;;;;;;6128536;19;20034;-69
2022/11/26 00:35:46;;;;;;;9.10;2.85;;;5.00;99.90;;;;;;6129030;19;19907;-69
2022/11/26 00:37:55;;;;;;;13.05;2.42;;;5.10;99.90;;;;;;6127077;19;19915;-69
2022/11/26 00:39:59;;;;;;;10.93;2.97;;;5.10;99.90;;;;;;6128862;19;19915;-69
2022/11/26 00:42:06;;;;;;;11.40;2.83;;;5.00;99.90;;;;;;6128554;19;19925;-69
2022/11/26 00:44:19;;;;;;;11.45;2.95;;;5.10;99.90;;;;;;6128460;19;19918;-69
2022/11/26 00:46:24;;;;;;;11.57;2.58;;;5.10;99.90;;;;;;6120947;19;20017;-68
2022/11/26 00:48:28;;;;;;;10.30;2.58;;;4.90;99.90;;;;;;6128140;19;19970;-68
2022/11/26 00:50:37;;;;;;;6.00;1.77;;;4.90;99.90;;;;;;6128768;19;19914;-68
2022/11/26 00:52:42;;;;;;;13.45;2.40;;;;;;;;;;6128234;19;20280;-67
2022/11/26 00:54:46;;;;;;;9.30;2.78;;;4.80;99.90;;;;;;6128014;19;19974;-69
2022/11/26 00:56:51;;;;;;;18.00;4.65;;;5.20;99.90;;;;;;6127628;19;20337;-69
2022/11/26 00:58:57;;;;;;;11.27;2.42;;;5.10;99.90;;;;;;6127785;19;19935;-68
2022/11/26 01:01:01;;;;;;;8.63;2.60;;;4.90;99.90;;;;;;6127895;19;19943;-69
2022/11/26 01:03:05;;;;;;;10.50;2.67;;;;;;;;;;6127760;19;19919;-69
2022/11/26 01:05:10;;;;;;;8.32;2.28;;;4.90;99.90;;;;;;6128265;19;19918;-69
2022/11/26 01:07:14;;;;;;;8.90;3.13;;;4.90;99.90;;;;;;6127696;19;19918;-69
2022/11/26 01:09:22;;;;;;;10.27;3.20;;;4.90;99.90;;;;;;6126811;19;19922;-69
2022/11/26 01:11:27;;;;;;;10.80;3.28;;;4.50;99.90;;;;;;6127674;19;19922;-68
2022/11/26 01:13:31;;;;;;;8.55;3.15;;;4.90;99.90;;;;;;6127842;19;20260;-69
2022/11/26 01:15:38;;;;;;;11.32;3.10;;;4.90;99.90;;;;;;6127564;19;20291;-69
2022/11/26 01:17:42;;;;;;;9.77;2.88;;;4.80;99.90;;;;;;6127537;19;20298;-69
2022/11/26 01:19:46;;;;;;;9.18;2.88;;;;;;;;;;6127410;19;19911;-69
2022/11/26 01:21:50;;;;;;;9.82;2.85;;;4.90;99.90;;;;;;6128292;19;19918;-69
2022/11/26 01:23:53;;;;;;;5.65;2.85;;;4.90;99.90;;;;;;6124062;19;20014;-69
2022/11/26 01:25:57;;;;;;;9.60;3.20;;;4.90;99.90;;;;;;6129660;19;20015;-68
2022/11/26 01:28:02;;;;;;;9.63;3.28;;;5.00;99.90;;;;;;6127455;19;19918;-69
2022/11/26 01:30:13;;;;;;;7.82;2.85;;;4.90;99.90;;;;;;6125856;19;19929;-69
2022/11/26 01:32:19;;;;;;;6.78;2.72;;;4.60;99.90;;;;;;6127484;19;19918;-69
2022/11/26 01:34:23;;;;;;;10.63;2.75;;;4.90;99.90;;;;;;6126842;19;20350;-69
2022/11/26 01:36:30;;;;;;;10.50;2.63;;;4.80;99.90;;;;;;6126990;19;19919;-69
2022/11/26 01:38:34;;;;;;;13.68;3.67;;;4.70;99.90;;;;;;6127065;19;19945;-69
2022/11/26 01:40:47;;;;;;;10.43;3.38;;;4.80;99.90;;;;;;6126948;19;19921;-69
2022/11/26 01:42:54;;;;;;;12.10;3.78;;;4.60;99.90;;;;;;6126814;19;19923;-69
2022/11/26 01:44:58;;;;;;;12.40;3.40;;;4.90;99.90;;;;;;6126966;19;19987;-69
2022/11/26 01:47:03;;;;;;;16.73;3.92;;;4.80;99.90;;;;;;6126677;19;19917;-69
2022/11/26 01:49:22;;;;;;;10.75;3.97;;;4.70;99.90;;;;;;6126525;19;19922;-70
2022/11/26 01:51:28;;;;;;;10.00;4.07;;;4.60;99.90;;;;;;6126628;19;20308;-69
2022/11/26 01:53:40;;;;;;;9.57;3.67;;;4.60;99.90;;;;;;6126749;19;19911;-68
2022/11/26 01:55:47;;;;;;;10.65;3.22;;;4.70;99.90;;;;;;6124643;19;20378;-68
2022/11/26 01:57:52;;;;;;;12.20;3.70;;;4.20;99.90;;;;;;6127004;19;19952;-68
2022/11/26 02:00:00;;;;;;;13.38;3.65;;;4.20;99.90;;;;;;6126701;19;19915;-69
2022/11/26 02:02:04;;;;;;;8.82;2.88;;;;;;;;;;6126935;19;19926;-68
2022/11/26 02:04:15;;;;;;;4.78;2.63;;;4.60;99.90;;;;;;6126873;19;19981;-69
2022/11/26 02:06:27;;;;;;;15.95;3.25;;;4.60;99.90;;;;;;6125090;19;19915;-68
2022/11/26 02:08:35;;;;;;;6.70;2.50;;;4.40;99.90;;;;;;6124882;19;20353;-68
2022/11/26 02:10:39;;;;;;;7.93;3.28;;;4.20;99.90;;;;;;6125474;19;19929;-68
2022/11/26 02:12:44;;;;;;;10.02;3.13;;;4.70;99.90;;;;;;6125079;19;19922;-69
2022/11/26 02:14:48;;;;;;;7.72;3.45;;;4.40;99.90;;;;;;6126581;19;20329;-69
2022/11/26 02:17:04;;;;;;;9.02;3.20;;;4.30;99.90;;;;;;6126180;19;19914;-69
2022/11/26 02:19:30;;;;;;;8.55;3.92;;;4.30;99.90;;;;;;6126358;19;19918;-68
2022/11/26 02:21:40;;;;;;;10.90;3.40;;;4.20;99.90;;;;;;6125943;19;19915;-68
2022/11/26 02:24:29;;;;;;;6.32;3.20;;;4.30;99.90;;;;;;6127173;19;20371;-68
2022/11/26 02:27:02;;;;;;;12.15;4.25;;;4.50;99.90;;;;;;6125343;19;19928;-68
2022/11/26 02:29:15;;;;;;;8.18;3.67;;;3.90;99.90;;;;;;6125930;19;19939;-68
2022/11/26 02:31:29;;;;;;;10.27;3.65;;;3.90;99.90;;;;;;6125853;19;19939;-68
2022/11/26 02:33:40;;;;;;;11.55;3.42;;;4.10;99.90;;;;;;6126304;19;19923;-68
2022/11/26 02:35:51;;;;;;;10.13;3.92;;;4.40;99.90;;;;;;6125397;19;19919;-68
2022/11/26 02:37:59;;;;;;;7.95;3.75;;;4.40;99.90;;;;;;6125019;19;19922;-68
2022/11/26 02:40:03;;;;;;;13.20;4.38;;;;;;;;;;6125212;19;19915;-68
2022/11/26 02:42:25;;;;;;;8.07;3.88;;;4.30;99.90;;;;;;6125461;19;19925;-69
2022/11/26 02:44:38;;;;;;;14.20;4.85;;;4.40;99.90;;;;;;6125294;19;19923;-69
2022/11/26 02:46:47;;;;;;;10.05;3.95;;;4.90;99.90;;;;;;6125643;19;19939;-69
2022/11/26 02:48:52;;;;;;;;;;;4.20;99.90;;;;;;6128074;19;19921;-68
2022/11/26 02:50:59;;;;;;;8.77;3.53;;;4.00;99.90;;;;;;6123673;19;19940;-69
2022/11/26 02:53:04;;;;;;;9.75;4.28;;;4.20;99.90;;;;;;6125188;19;19919;-68
2022/11/26 02:55:10;;;;;;;11.95;4.70;;;4.20;99.90;;;;;;6128059;19;20483;-68
2022/11/26 02:57:17;;;;;;;9.85;3.97;;;4.00;99.90;;;;;;6124812;19;19922;-68
2022/11/26 02:59:21;;;;;;;10.88;4.63;;;4.20;99.90;;;;;;6125546;19;19935;-68
2022/11/26 03:01:30;;;;;;;12.93;5.15;;;4.40;99.90;;;;;;6124767;19;19986;-68
2022/11/26 03:03:41;;;;;;;11.02;4.47;;;4.20;99.90;;;;;;6125330;19;19915;-68
2022/11/26 03:05:45;;;;;;;9.07;4.78;;;3.90;99.90;;;;;;6125021;19;19938;-68
2022/11/26 03:07:52;;;;;;;11.30;4.35;;;4.30;99.90;;;;;;6124683;19;20276;-68
2022/11/26 03:09:58;;;;;;;12.65;4.80;;;4.20;99.90;;;;;;6123786;19;20415;-68
2022/11/26 03:12:02;;;;;;;11.05;4.30;;;4.20;99.90;;;;;;6122807;19;19910;-68
2022/11/26 03:14:06;;;;;;;10.30;4.63;;;3.90;99.90;;;;;;6125075;19;20265;-68
2022/11/26 03:16:10;;;;;;;12.20;4.50;;;4.20;99.90;;;;;;6124416;19;20313;-68
2022/11/26 03:18:14;;;;;;;9.65;4.40;;;;;;;;;;6124475;19;20285;-68
2022/11/26 03:20:20;;;;;;;15.27;4.63;;;4.20;99.90;;;;;;6124337;19;20444;-68
2022/11/26 03:22:24;;;;;;;11.18;4.82;;;4.10;99.90;;;;;;6126261;19;19915;-68
2022/11/26 03:24:28;;;;;;;9.45;4.45;;;4.20;99.90;;;;;;6124089;19;19926;-69
2022/11/26 03:26:32;;;;;;;16.33;5.20;;;4.20;99.90;;;;;;6128277;19;19918;-68
2022/11/26 03:28:36;;;;;;;7.80;4.40;;;4.20;99.90;;;;;;6129796;19;20349;-68
2022/11/26 03:30:41;;;;;;;12.48;4.47;;;4.30;99.90;;;;;;6128658;19;19915;-69
2022/11/26 03:32:45;;;;;;;10.00;4.47;;;4.30;99.90;;;;;;6129558;19;19925;-68
2022/11/26 03:34:49;;;;;;;8.85;4.28;;;4.10;99.90;;;;;;6129673;19;19939;-69
2022/11/26 03:36:55;;;;;;;8.27;3.78;;;4.20;99.90;;;;;;6129585;19;19963;-68
2022/11/26 03:38:59;;;;;;;12.88;4.63;;;4.10;99.90;;;;;;6129916;19;19922;-68
2022/11/26 03:41:05;;;;;;;12.27;5.15;;;3.90;99.90;;;;;;6129997;19;20336;-69
2022/11/26 03:43:09;;;;;;;8.38;3.40;;;;;;;;;;6129721;19;19919;-68
2022/11/26 03:45:13;;;;;;;13.48;4.95;;;4.20;99.90;;;;;;6129947;19;19966;-68
2022/11/26 03:47:17;;;;;;;13.27;4.38;;;4.20;99.90;;;;;;6129448;19;19917;-69
2022/11/26 03:49:21;;;;;;;11.18;4.57;;;3.90;99.90;;;;;;6129882;19;19922;-68
2022/11/26 03:51:25;;;;;;;9.10;4.00;;;;;;;;;;6127621;19;19943;-68
2022/11/26 03:53:32;;;;;;;7.70;3.70;;;4.10;99.90;;;;;;6129892;19;19942;-68
2022/11/26 03:55:36;;;;;;;13.10;4.70;;;;;;;;;;6129423;19;19943;-67
2022/11/26 03:57:40;;;;;;;11.50;4.38;;;3.80;99.90;;;;;;6129636;19;19922;-68
2022/11/26 03:59:44;;;;;;;11.30;4.13;;;;;;;;;;6129249;19;19943;-68
2022/11/26 04:01:48;;;;;;;14.20;4.13;;;3.60;99.90;;;;;;6129300;19;19918;-68
2022/11/26 04:03:52;;;;;;;9.85;4.13;;;4.00;99.90;;;;;;6129111;19;20277;-68
2022/11/26 04:05:55;;;;;;;9.60;4.97;;;4.10;99.90;;;;;;6129279;19;19915;-68
2022/11/26 04:07:59;;;;;;;10.45;4.05;;;3.70;99.90;;;;;;6129772;19;19919;-69
2022/11/26 04:10:06;;;;;;;11.00;5.05;;;3.90;99.90;;;;;;6125881;19;20377;-69
2022/11/26 04:12:10;;;;;;;13.00;4.78;;;;;;;;;;6129747;19;19918;-68
2022/11/26 04:14:15;;;;;;;10.68;4.47;;;;;;;;;;6129486;19;19943;-69
2022/11/26 04:16:19;;;;;;;14.40;5.07;;;3.70;99.90;;;;;;6128960;19;20471;-69
2022/11/26 04:18:23;;;;;;;11.13;4.85;;;;;;;;;;6126984;19;19914;-69
2022/11/26 04:20:27;;;;;;;10.85;5.22;;;;;;;;;;6129251;19;20357;-69
2022/11/26 04:22:31;;;;;;;9.13;4.40;;;3.80;99.90;;;;;;6128793;19;19919;-69
2022/11/26 04:24:35;;;;;;;8.07;4.28;;;3.80;99.90;;;;;;6128928;19;19919;-69
2022/11/26 04:26:41;;;;;;;12.13;5.00;;;3.90;99.90;;;;;;6126497;19;19950;-69
2022/11/26 04:28:46;;;;;;;13.68;5.22;;;4.10;99.90;;;;;;6128612;19;19939;-68
2022/11/26 04:30:50;;;;;;;8.88;5.10;;;3.60;99.90;;;;;;6127429;19;19926;-68
2022/11/26 04:32:54;;;;;;;12.57;4.93;;;3.90;99.90;;;;;;6128659;19;19947;-68
2022/11/26 04:34:58;;;;;;;11.32;4.95;;;3.60;99.90;;;;;;6128570;19;19915;-68
2022/11/26 04:37:02;;;;;;;12.07;4.80;;;3.90;99.90;;;;;;6127123;19;19915;-68
2022/11/26 04:39:06;;;;;;;12.27;4.78;;;3.80;99.90;;;;;;6128341;19;20372;-68
2022/11/26 04:41:10;;;;;;;11.98;4.60;;;3.80;99.90;;;;;;6128470;19;19919;-69
2022/11/26 04:43:17;;;;;;;11.25;4.47;;;3.60;99.90;;;;;;6127985;19;19915;-69
2022/11/26 04:45:21;;;;;;;13.38;5.10;;;;;;;;;;6128757;19;19915;-69
2022/11/26 04:47:25;;;;;;;8.65;4.00;;;3.90;99.90;;;;;;6128140;19;19929;-69
2022/11/26 04:49:28;;;;;;;19.02;4.90;;;3.60;99.90;;;;;;6128524;19;19946;-69
2022/11/26 04:51:32;;;;;;;7.03;4.43;;;3.70;99.90;;;;;;6126945;19;19926;-69
2022/11/26 04:53:36;;;;;;;7.78;4.10;;;3.60;99.90;;;;;;6127986;19;19915;-69
2022/11/26 04:55:40;;;;;;;12.68;4.95;;;3.50;99.90;;;;;;6127709;19;19911;-68
2022/11/26 04:57:47;;;;;;;11.77;4.40;;;;;;;;;;6127897;19;20352;-68
2022/11/26 04:59:54;;;;;;;8.98;4.25;;;3.60;99.90;;;;;;6127931;19;19914;-69
2022/11/26 05:01:58;;;;;;;11.32;4.00;;;3.50;99.90;;;;;;6127975;19;19939;-68
2022/11/26 05:04:02;;;;;;;11.50;4.80;;;3.30;99.90;;;;;;6128166;19;19911;-68
2022/11/26 05:06:06;;;;;;;10.95;3.83;;;3.60;99.90;;;;;;6128032;19;19919;-68
2022/11/26 05:08:10;;;;;;;5.20;3.50;;;3.60;99.90;;;;;;6127758;19;19915;-69
2022/11/26 05:10:15;;;;;;;6.65;3.30;;;3.70;99.90;;;;;;6125986;19;19929;-69
2022/11/26 05:12:19;;;;;;;7.72;3.83;;;3.50;99.90;;;;;;6128170;19;19918;-68
2022/11/26 05:14:23;;;;;;;8.20;3.92;;;3.30;99.90;;;;;;6127680;19;19918;-69
2022/11/26 05:16:29;;;;;;;6.28;3.42;;;3.30;99.90;;;;;;6122139;19;20014;-68
2022/11/26 05:18:33;;;;;;;6.03;3.58;;;3.00;99.90;;;;;;6127141;19;19915;-69
2022/11/26 05:20:37;;;;;;;5.82;3.75;;;3.10;99.90;;;;;;6130974;19;19915;-69
2022/11/26 05:22:41;;;;;;;7.00;3.70;;;3.10;99.90;;;;;;6127537;19;19947;-69
2022/11/26 05:24:45;;;;;;;5.68;3.75;;;2.90;99.90;;;;;;6127751;19;19927;-69
2022/11/26 05:26:49;;;;;;;4.70;3.22;;;3.10;99.90;;;;;;6127287;19;20266;-69
2022/11/26 05:28:54;;;;;;;4.93;2.75;;;2.80;99.90;;;;;;6127638;19;19915;-69
2022/11/26 05:31:03;;;;;;;6.07;2.85;;;2.90;99.90;;;;;;6126557;19;20370;-69
2022/11/26 05:33:10;;;;;;;11.40;3.38;;;2.90;99.90;;;;;;6127212;19;19926;-69
2022/11/26 05:35:14;;;;;;;9.35;3.75;;;3.10;99.90;;;;;;6127349;19;19911;-69
2022/11/26 05:37:17;;;;;;;8.40;4.43;;;2.80;99.90;;;;;;6126630;19;20270;-68
2022/11/26 05:39:21;;;;;;;8.38;4.20;;;;;;;;;;6127578;19;19939;-68
2022/11/26 05:41:26;;;;;;;6.47;3.65;;;;;;;;;;6127001;19;19911;-68
2022/11/26 05:43:29;;;;;;;10.02;4.20;;;2.80;99.90;;;;;;6127389;19;19943;-68
2022/11/26 05:45:33;;;;;;;11.00;4.55;;;2.80;99.90;;;;;;6126753;19;19911;-68
2022/11/26 05:47:37;;;;;;;9.25;5.35;;;3.20;99.90;;;;;;6124733;19;19922;-68
2022/11/26 05:49:44;;;;;;;8.65;4.65;;;3.20;99.90;;;;;;6126777;19;20267;-69
2022/11/26 05:51:48;;;;;;;9.75;4.90;;;3.20;99.90;;;;;;6126097;19;19922;-68
2022/11/26 05:53:51;;;;;;;12.82;5.22;;;2.80;99.90;;;;;;6127332;19;20423;-68
2022/11/26 05:55:55;;;;;;;9.10;5.00;;;2.90;99.90;;;;;;6126442;19;19918;-69
2022/11/26 05:57:59;;;;;;;8.90;4.95;;;2.90;99.90;;;;;;6126877;19;19918;-68
2022/11/26 06:00:03;;;;;;;13.35;4.35;;;3.00;99.90;;;;;;6126408;19;19931;-69
2022/11/26 06:02:07;;;;;;;9.10;4.53;;;3.10;99.90;;;;;;6126436;19;20373;-69
2022/11/26 06:04:11;;;;;;;10.38;5.00;;;;;;;;;;6126576;19;19925;-69
2022/11/26 06:06:18;;;;;;;7.88;4.55;;;3.50;99.90;;;;;;6126325;19;19921;-69
2022/11/26 06:08:22;;;;;;;9.30;4.82;;;3.20;99.90;;;;;;6126686;19;19922;-68
2022/11/26 06:10:26;;;;;;;8.65;4.97;;;3.10;99.90;;;;;;6124998;19;19943;-69
2022/11/26 06:12:30;;;;;;;8.32;5.22;;;2.90;99.90;;;;;;6126522;19;19915;-68
2022/11/26 06:14:34;;;;;;;9.63;5.43;;;;;;;;;;6126146;19;20578;-69
2022/11/26 06:16:38;;;;;;;10.73;5.07;;;2.80;99.90;;;;;;6126075;19;19926;-69
2022/11/26 06:18:42;;;;;;;10.55;5.00;;;3.00;99.90;;;;;;6128397;19;20364;-69
2022/11/26 06:20:46;;;;;;;11.18;5.15;;;3.30;99.90;;;;;;6125864;19;19918;-69
2022/11/26 06:22:53;;;;;;;10.07;5.15;;;3.20;99.90;;;;;;6126153;19;19915;-69
2022/11/26 06:24:57;;;;;;;9.50;4.97;;;3.40;99.90;;;;;;6125996;19;19911;-69
2022/11/26 06:27:00;;;;;;;11.77;5.50;;;3.10;99.90;;;;;;6125282;19;19918;-69
2022/11/26 06:29:05;;;;;;;8.23;5.07;;;3.20;99.90;;;;;;6125796;19;19939;-69
2022/11/26 06:31:11;;;;;;;10.38;5.13;;;3.00;99.90;;;;;;6125606;19;19932;-69
2022/11/26 06:33:15;;;;;;;25.92;5.10;;;3.10;99.90;;;;;;6121889;19;20015;-69
2022/11/26 06:35:19;;;;;;;48.30;6.95;;;;;;;;;;6124155;19;19911;-70
2022/11/26 06:37:23;;;;;;;45.30;6.22;;;3.20;99.90;;;;;;6124719;19;19979;-69
2022/11/26 06:39:30;;;;;;;51.15;7.07;;;3.00;99.90;;;;;;6125629;19;19919;-69
2022/11/26 06:41:34;;;;;;;75.25;8.20;;;3.30;99.90;;;;;;6125611;19;20278;-69
2022/11/26 06:43:38;;;;;;;48.55;7.18;;;3.10;99.90;;;;;;6125535;19;19918;-69
2022/11/26 06:45:42;;;;;;;91.22;8.10;;;3.30;99.90;;;;;;6125352;19;19915;-69
2022/11/26 06:47:48;;;;;;;57.92;7.45;;;2.70;99.90;;;;;;6125154;19;19914;-69
2022/11/26 06:49:52;;;;;;;28.15;5.93;;;;;;;;;;6125243;19;20040;-69
2022/11/26 06:51:56;;;;;;;82.50;7.78;;;3.10;99.90;;;;;;6124311;19;19918;-69
2022/11/26 06:54:00;;;;;;;37.45;5.72;;;;;;;;;;6125175;19;19919;-68
2022/11/26 06:56:08;;;;;;;33.67;6.60;;;3.40;99.90;;;;;;6124619;19;19943;-69
2022/11/26 06:58:13;;;;;;;24.50;6.03;;;3.40;99.90;;;;;;6124756;19;20291;-69
2022/11/26 07:00:21;;;;;;;74.13;7.32;;;2.90;99.90;;;;;;6127896;19;20336;-69
2022/11/26 07:02:25;;;;;;;46.97;6.25;;;;;;;;;;6123544;19;20021;-69
2022/11/26 07:04:29;;;;;;;29.63;6.32;;;3.30;99.90;;;;;;6130434;19;19915;-69
2022/11/26 07:06:34;;;;;;;34.22;6.38;;;3.40;99.90;;;;;;6130382;19;19928;-69
2022/11/26 07:08:38;;;;;;;48.05;7.75;;;2.90;99.90;;;;;;6129976;19;20376;-69
2022/11/26 07:10:42;;;;;;;28.35;6.38;;;3.40;99.90;;;;;;6127952;19;19923;-68
2022/11/26 07:12:49;;;;;;;60.42;8.60;;;3.50;99.90;;;;;;6121604;19;20015;-69
2022/11/26 07:14:52;;;;;;;39.30;6.45;;;3.40;99.90;;;;;;6130225;19;19919;-69
2022/11/26 07:16:56;;;;;;;54.50;6.32;;;3.20;99.90;;;;;;6132045;19;19943;-69
2022/11/26 07:19:01;;;;;;;54.72;7.30;;;3.30;99.90;;;;;;6130193;19;19910;-69
2022/11/26 07:21:11;;;;;;;61.72;6.95;;;3.10;99.90;;;;;;6130272;19;19943;-68
2022/11/26 07:23:14;;;;;;;49.17;7.55;;;3.10;99.90;;;;;;6130259;19;20333;-69
2022/11/26 07:25:18;;;;;;;37.80;6.47;;;2.90;99.90;;;;;;6130198;19;19918;-69
2022/11/26 07:27:22;;;;;;;41.63;7.15;;;3.60;99.90;;;;;;6130536;19;19915;-69
2022/11/26 07:29:29;;;;;;;35.92;7.15;;;3.40;99.90;;;;;;6130321;19;19915;-70
2022/11/26 07:31:35;;;;;;;70.38;7.93;;;3.70;99.90;;;;;;6129262;19;19918;-70
2022/11/26 07:33:39;;;;;;;49.88;7.00;;;3.80;99.90;;;;;;6129955;19;20261;-70
2022/11/26 07:35:43;;;;;;;51.83;7.22;;;3.80;99.90;;;;;;6129811;19;19907;-70
2022/11/26 07:37:47;;;;;;;35.17;7.80;;;3.00;99.90;;;;;;6128773;19;19936;-69
2022/11/26 07:39:51;;;;;;;47.90;7.22;;;3.80;99.90;;;;;;6129667;19;19935;-70
2022/11/26 07:41:54;;;;;;;44.97;6.68;;;3.30;99.90;;;;;;6129598;19;19918;-70
2022/11/26 07:43:59;;;;;;;45.65;6.28;;;3.00;99.90;;;;;;6129667;19;19919;-69
2022/11/26 07:46:06;;;;;;;52.95;6.47;;;3.00;99.90;;;;;;6130395;19;19918;-69
2022/11/26 07:48:10;;;;;;;30.55;6.10;;;3.60;99.90;;;;;;6129913;19;19925;-69
2022/11/26 07:50:14;;;;;;;45.45;6.25;;;;;;;;;;6129386;19;20369;-69
2022/11/26 07:52:18;;;;;;;31.42;6.10;;;3.70;99.90;;;;;;6128257;19;19914;-70
2022/11/26 07:54:22;;;;;;;52.40;6.90;;;3.30;99.90;;;;;;6128226;19;19990;-69
2022/11/26 07:56:26;;;;;;;23.70;5.60;;;3.60;99.90;;;;;;6129038;19;19954;-69
2022/11/26 07:58:30;;;;;;;25.88;5.93;;;3.70;99.90;;;;;;6129147;19;19926;-70
2022/11/26 08:00:34;;;;;;;21.23;5.63;;;3.80;99.90;;;;;;6129283;19;19915;-70
2022/11/26 08:02:40;;;;;;;30.55;6.72;;;3.10;99.90;;;;;;6129088;19;20351;-70
2022/11/26 08:04:44;;;;;;;31.20;5.65;;;3.10;99.90;;;;;;6129253;19;19914;-69
2022/11/26 08:06:49;;;;;;;18.33;5.25;;;3.50;99.90;;;;;;6129173;19;19910;-70
2022/11/26 08:08:53;;;;;;;47.67;6.32;;;3.10;99.90;;;;;;6129078;19;20483;-69
2022/11/26 08:10:57;;;;;;;50.33;7.10;;;3.80;99.90;;;;;;6125755;19;19947;-69
2022/11/26 08:13:01;;;;;;;28.75;6.60;;;3.50;99.90;;;;;;6126924;19;19915;-69
2022/11/26 08:15:05;;;;;;;48.58;6.25;;;4.10;99.90;;;;;;6129483;19;19947;-69
2022/11/26 08:17:09;;;;;;;33.60;6.22;;;;;;;;;;6129121;19;19970;-69
2022/11/26 08:19:16;;;;;;;32.65;6.00;;;3.50;99.90;;;;;;6129260;19;19943;-69
2022/11/26 08:21:20;;;;;;;27.05;6.60;;;3.90;99.90;;;;;;6128631;19;20293;-70
2022/11/26 08:23:24;;;;;;;48.53;7.65;;;3.20;99.90;;;;;;6128501;19;19928;-70
2022/11/26 08:25:28;;;;;;;20.77;6.15;;;3.80;99.90;;;;;;6128615;19;19927;-70
2022/11/26 08:27:33;;;;;;;21.65;6.47;;;3.50;99.90;;;;;;6128601;19;19939;-69
2022/11/26 08:29:38;;;;;;;38.25;6.30;;;3.80;99.90;;;;;;6128502;19;19944;-70
2022/11/26 08:31:43;;;;;;;26.38;5.88;;;;;;;;;;6128227;19;20366;-69
2022/11/26 08:33:47;;;;;;;41.85;6.47;;;;;;;;;;6128366;19;19943;-70
2022/11/26 08:35:56;;;;;;;34.72;6.28;;;3.70;99.90;;;;;;6128971;19;19910;-69
2022/11/26 08:37:59;;;;;;;;;;;3.70;99.90;;;;;;6129473;19;19943;-69
2022/11/26 08:40:03;;;;;;;18.48;6.63;;;3.00;99.90;;;;;;6128438;19;19919;-69
2022/11/26 08:42:07;;;;;;;26.85;6.35;;;3.90;99.90;;;;;;6128154;19;19943;-69
2022/11/26 08:44:11;;;;;;;30.25;6.45;;;4.20;99.90;;;;;;6128319;19;19914;-69
2022/11/26 08:46:15;;;;;;;42.80;7.50;;;4.10;99.90;;;;;;6128351;19;19919;-69
2022/11/26 08:48:19;;;;;;;23.30;6.32;;;4.10;99.90;;;;;;6128226;19;20248;-69
2022/11/26 08:50:23;;;;;;;21.95;6.53;;;;;;;;;;6127784;19;19922;-69
2022/11/26 08:52:29;;;;;;;35.28;5.82;;;4.10;99.90;;;;;;6127046;19;19915;-69
2022/11/26 08:54:33;;;;;;;25.55;7.80;;;3.60;99.90;;;;;;6128250;19;19947;-70
2022/11/26 08:56:38;;;;;;;20.42;7.47;;;4.30;99.90;;;;;;6127553;19;19942;-69
2022/11/26 08:58:44;;;;;;;17.38;7.15;;;4.10;99.90;;;;;;6128021;19;20290;-70
2022/11/26 09:00:48;;;;;;;24.80;7.55;;;3.80;99.90;;;;;;6128027;19;20329;-69
2022/11/26 09:02:52;;;;;;;35.13;7.10;;;;;;;;;;6128010;19;19915;-69
2022/11/26 09:04:56;;;;;;;34.20;7.25;;;3.50;99.90;;;;;;6127681;19;19943;-69
2022/11/26 09:06:59;;;;;;;30.77;7.47;;;3.80;99.90;;;;;;6127841;19;19918;-69
2022/11/26 09:09:16;;;;;;;21.92;7.82;;;4.40;99.90;;;;;;6127716;19;20657;-70
2022/11/26 09:11:20;;;;;;;25.35;7.70;;;4.10;99.90;;;;;;6125920;19;19939;-69
2022/11/26 09:13:24;;;;;;;31.52;8.00;;;4.40;99.90;;;;;;6126183;19;19919;-70
2022/11/26 09:15:28;;;;;;;30.67;7.47;;;4.10;99.90;;;;;;6127673;19;20333;-69
2022/11/26 09:17:32;;;;;;;26.55;7.10;;;4.10;99.90;;;;;;6127456;19;19914;-70
2022/11/26 09:19:36;;;;;;;39.30;9.25;;;4.30;99.90;;;;;;6127516;19;19918;-69
2022/11/26 09:21:40;;;;;;;30.20;7.05;;;4.30;99.90;;;;;;6126970;19;19921;-70
2022/11/26 09:23:44;;;;;;;27.73;8.68;;;;;;;;;;6125225;19;19921;-70
2022/11/26 09:25:51;;;;;;;24.67;7.47;;;4.00;99.90;;;;;;6127042;19;19918;-70
2022/11/26 09:27:55;;;;;;;29.00;7.15;;;;;;;;;;6127193;19;19921;-69
2022/11/26 09:29:59;;;;;;;32.20;7.93;;;;;;;;;;6127209;19;19922;-70
2022/11/26 09:32:04;;;;;;;41.33;8.25;;;4.70;99.90;;;;;;6126614;19;19915;-69
2022/11/26 09:34:08;;;;;;;23.65;8.70;;;4.50;99.90;;;;;;6127071;19;19939;-69
2022/11/26 09:36:14;;;;;;;30.50;7.55;;;4.90;99.90;;;;;;6126959;19;19922;-70
2022/11/26 09:38:17;;;;;;;33.85;8.63;;;4.50;99.90;;;;;;6125549;19;19943;-69
2022/11/26 09:40:21;;;;;;;23.83;7.65;;;4.40;99.90;;;;;;6126982;19;19964;-69
2022/11/26 09:42:42;;;;;;;28.75;7.25;;;4.90;99.90;;;;;;6127316;19;20789;-70
2022/11/26 09:45:01;;;;;;;19.42;6.50;;;5.10;99.90;;;;;;6127115;19;20717;-68
2022/11/26 09:47:12;;;;;;;20.40;7.38;;;4.60;99.90;;;;;;6127250;19;19943;-69
2022/11/26 09:49:18;;;;;;;31.02;8.18;;;4.80;99.90;;;;;;6126835;19;20301;-70
2022/11/26 09:51:22;;;;;;;24.52;7.63;;;4.40;99.90;;;;;;6126727;19;19914;-68
2022/11/26 09:53:31;;;;;;;25.45;7.80;;;4.40;99.90;;;;;;6125612;19;19911;-69
2022/11/26 09:55:38;;;;;;;12.45;5.93;;;4.40;99.90;;;;;;6126614;19;19915;-69
2022/11/26 09:57:48;;;;;;;16.42;6.82;;;4.30;99.90;;;;;;6126506;19;19926;-68
2022/11/26 09:59:53;;;;;;;19.80;7.82;;;4.90;99.90;;;;;;6127039;19;19939;-69
2022/11/26 10:01:57;;;;;;;23.42;8.10;;;;;;;;;;6126958;19;19919;-68
2022/11/26 10:04:02;;;;;;;18.50;7.55;;;;;;;;;;6126665;19;19914;-68
2022/11/26 10:06:10;;;;;;;18.17;7.22;;;5.20;99.90;;;;;;6126413;19;19918;-69
2022/11/26 10:08:53;;;;;;;25.70;7.45;;;4.90;99.90;;;;;;6126507;19;19926;-69
2022/11/26 10:10:59;;;;;;;19.77;7.32;;;5.20;99.90;;;;;;6124167;19;20329;-69
2022/11/26 10:13:26;;;;;;;16.90;7.03;;;5.30;99.90;;;;;;6128042;19;19944;-70
2022/11/26 10:15:37;;;;;;;27.63;7.28;;;4.60;99.90;;;;;;6126196;19;20407;-70
2022/11/26 10:17:52;;;;;;;19.60;7.63;;;4.90;99.90;;;;;;6126249;19;19947;-68
2022/11/26 10:20:14;;;;;;;24.20;7.93;;;4.60;99.90;;;;;;6126453;19;19919;-70
2022/11/26 10:22:24;;;;;;;22.85;7.05;;;4.60;99.90;;;;;;6126267;19;19929;-69
2022/11/26 10:24:31;;;;;;;21.70;7.47;;;5.10;99.90;;;;;;6125918;19;19970;-70
2022/11/26 10:26:37;;;;;;;24.27;7.60;;;5.30;99.90;;;;;;6125620;19;19922;-70
2022/11/26 10:28:47;;;;;;;22.35;8.68;;;5.50;99.90;;;;;;6125898;19;19919;-70
2022/11/26 10:30:58;;;;;;;27.48;8.85;;;5.50;99.90;;;;;;6125701;19;19914;-69
2022/11/26 10:33:08;;;;;;;26.63;8.40;;;5.50;99.90;;;;;;6124517;19;19922;-68
2022/11/26 10:35:16;;;;;;;22.10;9.10;;;5.20;99.90;;;;;;6124600;19;19920;-69
2022/11/26 10:37:22;;;;;;;21.30;8.68;;;5.30;99.90;;;;;;6124636;19;19947;-69
2022/11/26 10:39:26;;;;;;;21.98;9.13;;;;;;;;;;6125540;19;19925;-68
2022/11/26 10:41:33;;;;;;;29.95;10.48;;;4.90;99.90;;;;;;6125583;19;20294;-69
2022/11/26 10:43:37;;;;;;;26.00;10.07;;;5.20;99.90;;;;;;6125867;19;19915;-69
2022/11/26 10:45:46;;;;;;;22.90;8.68;;;5.30;99.90;;;;;;6125810;19;20277;-69
2022/11/26 10:47:50;;;;;;;26.13;9.63;;;5.00;99.90;;;;;;6125367;19;19918;-68
2022/11/26 10:49:57;;;;;;;27.83;10.70;;;4.90;99.90;;;;;;6125609;19;19929;-70
2022/11/26 10:52:03;;;;;;;22.55;9.30;;;5.50;99.90;;;;;;6125471;19;19918;-70
2022/11/26 10:54:07;;;;;;;21.08;9.98;;;;;;;;;;6123828;19;19915;-70
2022/11/26 10:56:19;;;;;;;26.23;9.68;;;5.50;99.90;;;;;;6124655;19;19910;-68
2022/11/26 10:58:27;;;;;;;20.33;10.05;;;5.10;99.90;;;;;;6125236;19;19939;-69
2022/11/26 11:00:37;;;;;;;25.27;11.13;;;5.30;99.90;;;;;;6124913;19;19947;-69
2022/11/26 11:02:43;;;;;;;28.20;10.95;;;5.70;99.90;;;;;;6123455;19;19918;-70
2022/11/26 11:04:51;;;;;;;24.90;10.32;;;5.90;99.90;;;;;;6124782;19;19919;-70
2022/11/26 11:06:55;;;;;;;24.17;10.50;;;5.90;99.90;;;;;;6117065;19;20011;-69